sensor_id;sensor_type;location;lat;lon;timestamp;temperature;humidity
1417;DHT22;703;51.162;13.574;2022-10-16T00:00:56;13.70;99.90
1417;DHT22;703;51.162;13.574;2022-10-16T00:03:22;13.70;99.90
1417;DHT22;703;51.162;13.574;2022-10-16T00:10:40;13.40;99.90
1417;DHT22;703;51.162;13.574;2022-10-16T00:13:06;13.40;99.90
1417;DHT22;703;51.162;13.574;2022-10-16T00:15:38;13.30;99.90
1417;DHT22;703;51.162;13.574;2022-10-16T00:18:04;13.20;99.90
1417;DHT22;703;51.162;13.574;2022-10-16T00:20:30;13.10;99.90
1417;DHT22;703;51.162;13.574;2022-10-16T00:22:58;13.20;99.90
1417;DHT22;703;51.162;13.574;2022-10-16T00:27:50;13.10;99.90
1417;DHT22;703;51.162;13.574;2022-10-16T00:30:15;13.20;99.90
1417;DHT22;703;51.162;13.574;2022-10-16T00:35:07;13.20;99.90
1417;DHT22;703;51.162;13.574;2022-10-16T00:37:33;13.20;99.90
1417;DHT22;703;51.162;13.574;2022-10-16T00:39:58;13.20;99.90
1417;DHT22;703;51.162;13.574;2022-10-16T00:42:24;13.30;99.90
1417;DHT22;703;51.162;13.574;2022-10-16T00:44:51;13.30;99.90
1417;DHT22;703;51.162;13.574;2022-10-16T00:49:46;13.30;99.90
1417;DHT22;703;51.162;13.574;2022-10-16T00:52:13;13.40;99.90
1417;DHT22;703;51.162;13.574;2022-10-16T00:54:39;13.50;99.90
1417;DHT22;703;51.162;13.574;2022-10-16T00:57:06;13.50;99.90
1417;DHT22;703;51.162;13.574;2022-10-16T00:59:35;13.50;99.90
1417;DHT22;703;51.162;13.574;2022-10-16T01:02:02;13.80;99.90
1417;DHT22;703;51.162;13.574;2022-10-16T01:04:32;17.90;99.90
1417;DHT22;703;51.162;13.574;2022-10-16T01:07:56;13.80;99.90
1417;DHT22;703;51.162;13.574;2022-10-16T01:13:09;13.80;99.90
1417;DHT22;703;51.162;13.574;2022-10-16T01:15:42;13.80;99.90
1417;DHT22;703;51.162;13.574;2022-10-16T01:18:28;13.80;99.90
1417;DHT22;703;51.162;13.574;2022-10-16T01:21:04;13.90;99.90
1417;DHT22;703;51.162;13.574;2022-10-16T01:27:09;14.00;99.90
1417;DHT22;703;51.162;13.574;2022-10-16T01:29:34;14.00;99.90
1417;DHT22;703;51.162;13.574;2022-10-16T01:32:09;14.10;99.90
1417;DHT22;703;51.162;13.574;2022-10-16T01:34:41;14.10;99.90
1417;DHT22;703;51.162;13.574;2022-10-16T01:37:20;14.10;99.90
1417;DHT22;703;51.162;13.574;2022-10-16T01:39:48;14.10;99.90
1417;DHT22;703;51.162;13.574;2022-10-16T01:42:22;14.20;99.90
1417;DHT22;703;51.162;13.574;2022-10-16T01:44:51;14.20;99.90
1417;DHT22;703;51.162;13.574;2022-10-16T01:47:17;14.30;99.90
1417;DHT22;703;51.162;13.574;2022-10-16T01:49:45;14.30;99.90
1417;DHT22;703;51.162;13.574;2022-10-16T01:52:16;14.50;99.90
1417;DHT22;703;51.162;13.574;2022-10-16T01:54:45;18.80;99.90
1417;DHT22;703;51.162;13.574;2022-10-16T01:57:13;16.10;99.90
1417;DHT22;703;51.162;13.574;2022-10-16T01:59:46;18.30;99.90
1417;DHT22;703;51.162;13.574;2022-10-16T02:02:13;14.50;99.90
1417;DHT22;703;51.162;13.574;2022-10-16T02:04:46;14.50;99.90
1417;DHT22;703;51.162;13.574;2022-10-16T02:07:13;14.60;99.90
1417;DHT22;703;51.162;13.574;2022-10-16T02:09:39;14.40;99.90
1417;DHT22;703;51.162;13.574;2022-10-16T02:12:15;14.60;99.90
1417;DHT22;703;51.162;13.574;2022-10-16T02:14:44;14.60;99.90
1417;DHT22;703;51.162;13.574;2022-10-16T02:17:15;14.60;99.90
1417;DHT22;703;51.162;13.574;2022-10-16T02:19:42;14.50;99.90
1417;DHT22;703;51.162;13.574;2022-10-16T02:22:11;14.60;99.90
1417;DHT22;703;51.162;13.574;2022-10-16T02:24:54;14.60;99.90
1417;DHT22;703;51.162;13.574;2022-10-16T02:27:28;14.70;99.90
1417;DHT22;703;51.162;13.574;2022-10-16T02:30:13;14.70;99.90
1417;DHT22;703;51.162;13.574;2022-10-16T02:32:42;14.70;99.90
1417;DHT22;703;51.162;13.574;2022-10-16T02:35:09;14.70;99.90
1417;DHT22;703;51.162;13.574;2022-10-16T02:37:35;14.80;99.90
1417;DHT22;703;51.162;13.574;2022-10-16T02:40:02;14.90;99.90
1417;DHT22;703;51.162;13.574;2022-10-16T02:42:34;15.00;99.90
1417;DHT22;703;51.162;13.574;2022-10-16T02:45:00;15.00;99.90
1417;DHT22;703;51.162;13.574;2022-10-16T02:47:26;17.20;99.90
1417;DHT22;703;51.162;13.574;2022-10-16T02:49:51;16.60;99.90
1417;DHT22;703;51.162;13.574;2022-10-16T02:52:17;14.90;99.90
1417;DHT22;703;51.162;13.574;2022-10-16T02:54:42;14.90;99.90
1417;DHT22;703;51.162;13.574;2022-10-16T02:57:08;15.10;99.90
1417;DHT22;703;51.162;13.574;2022-10-16T02:59:33;15.30;99.90
1417;DHT22;703;51.162;13.574;2022-10-16T03:01:59;15.40;99.90
1417;DHT22;703;51.162;13.574;2022-10-16T03:04:25;15.40;99.90
1417;DHT22;703;51.162;13.574;2022-10-16T03:06:50;15.40;99.90
1417;DHT22;703;51.162;13.574;2022-10-16T03:09:16;15.30;99.90
1417;DHT22;703;51.162;13.574;2022-10-16T03:11:41;15.10;99.90
1417;DHT22;703;51.162;13.574;2022-10-16T03:14:07;15.10;99.90
1417;DHT22;703;51.162;13.574;2022-10-16T03:16:32;18.50;99.90
1417;DHT22;703;51.162;13.574;2022-10-16T03:18:58;15.10;99.90
1417;DHT22;703;51.162;13.574;2022-10-16T03:21:23;15.10;99.90
1417;DHT22;703;51.162;13.574;2022-10-16T03:23:49;14.90;99.90
1417;DHT22;703;51.162;13.574;2022-10-16T03:26:14;17.50;99.90
1417;DHT22;703;51.162;13.574;2022-10-16T03:28:40;14.80;99.90
1417;DHT22;703;51.162;13.574;2022-10-16T03:31:05;15.10;99.90
1417;DHT22;703;51.162;13.574;2022-10-16T03:33:31;15.10;99.90
1417;DHT22;703;51.162;13.574;2022-10-16T03:35:56;15.10;99.90
1417;DHT22;703;51.162;13.574;2022-10-16T03:38:22;15.10;99.90
1417;DHT22;703;51.162;13.574;2022-10-16T03:40:48;15.10;99.90
1417;DHT22;703;51.162;13.574;2022-10-16T03:43:13;15.10;99.90
1417;DHT22;703;51.162;13.574;2022-10-16T03:48:05;14.90;99.90
1417;DHT22;703;51.162;13.574;2022-10-16T03:50:31;17.00;99.90
1417;DHT22;703;51.162;13.574;2022-10-16T03:52:56;15.00;99.90
1417;DHT22;703;51.162;13.574;2022-10-16T03:55:22;15.00;99.90
1417;DHT22;703;51.162;13.574;2022-10-16T03:57:47;15.00;99.90
1417;DHT22;703;51.162;13.574;2022-10-16T04:00:13;15.00;99.90
1417;DHT22;703;51.162;13.574;2022-10-16T04:02:39;18.80;99.90
1417;DHT22;703;51.162;13.574;2022-10-16T04:05:05;15.00;99.90
1417;DHT22;703;51.162;13.574;2022-10-16T04:07:31;14.80;99.90
1417;DHT22;703;51.162;13.574;2022-10-16T04:09:56;15.70;99.90
1417;DHT22;703;51.162;13.574;2022-10-16T04:12:24;14.60;99.90
1417;DHT22;703;51.162;13.574;2022-10-16T04:14:50;14.50;99.90
1417;DHT22;703;51.162;13.574;2022-10-16T04:17:15;14.60;99.90
1417;DHT22;703;51.162;13.574;2022-10-16T04:19:41;14.60;99.90
1417;DHT22;703;51.162;13.574;2022-10-16T04:22:06;14.50;99.90
1417;DHT22;703;51.162;13.574;2022-10-16T04:24:32;14.40;99.90
1417;DHT22;703;51.162;13.574;2022-10-16T04:26:57;14.30;99.90
1417;DHT22;703;51.162;13.574;2022-10-16T04:29:23;14.20;99.90
1417;DHT22;703;51.162;13.574;2022-10-16T04:31:48;14.20;99.90
1417;DHT22;703;51.162;13.574;2022-10-16T04:34:14;14.10;99.90
1417;DHT22;703;51.162;13.574;2022-10-16T04:36:39;18.30;99.90
1417;DHT22;703;51.162;13.574;2022-10-16T04:39:05;18.20;99.90
1417;DHT22;703;51.162;13.574;2022-10-16T04:41:30;14.00;99.90
1417;DHT22;703;51.162;13.574;2022-10-16T04:43:56;15.70;99.90
1417;DHT22;703;51.162;13.574;2022-10-16T04:58:31;13.90;99.90
1417;DHT22;703;51.162;13.574;2022-10-16T05:00:57;13.90;99.90
1417;DHT22;703;51.162;13.574;2022-10-16T05:03:23;14.00;99.90
1417;DHT22;703;51.162;13.574;2022-10-16T05:08:15;14.00;99.90
1417;DHT22;703;51.162;13.574;2022-10-16T05:10:42;13.90;99.90
1417;DHT22;703;51.162;13.574;2022-10-16T05:15:34;13.90;99.90
1417;DHT22;703;51.162;13.574;2022-10-16T05:18:00;13.80;99.90
1417;DHT22;703;51.162;13.574;2022-10-16T05:27:47;13.70;99.90
1417;DHT22;703;51.162;13.574;2022-10-16T05:56:58;13.60;99.90
1417;DHT22;703;51.162;13.574;2022-10-16T05:59:24;13.60;99.90
1417;DHT22;703;51.162;13.574;2022-10-16T06:06:41;13.50;99.90
1417;DHT22;703;51.162;13.574;2022-10-16T06:09:07;13.50;99.90
1417;DHT22;703;51.162;13.574;2022-10-16T06:11:33;13.60;99.90
1417;DHT22;703;51.162;13.574;2022-10-16T06:14:01;13.60;99.90
1417;DHT22;703;51.162;13.574;2022-10-16T06:16:28;13.70;99.90
1417;DHT22;703;51.162;13.574;2022-10-16T06:18:55;13.90;99.90
1417;DHT22;703;51.162;13.574;2022-10-16T06:21:26;13.90;99.90
1417;DHT22;703;51.162;13.574;2022-10-16T06:23:53;13.90;99.90
1417;DHT22;703;51.162;13.574;2022-10-16T06:26:21;14.00;99.90
1417;DHT22;703;51.162;13.574;2022-10-16T06:28:48;14.10;99.90
1417;DHT22;703;51.162;13.574;2022-10-16T06:40:58;14.70;99.90
1417;DHT22;703;51.162;13.574;2022-10-16T06:43:24;14.80;99.90
1417;DHT22;703;51.162;13.574;2022-10-16T06:45:54;14.90;99.90
1417;DHT22;703;51.162;13.574;2022-10-16T06:48:20;15.00;99.90
1417;DHT22;703;51.162;13.574;2022-10-16T06:51:00;15.00;99.90
1417;DHT22;703;51.162;13.574;2022-10-16T06:53:28;15.20;99.90
1417;DHT22;703;51.162;13.574;2022-10-16T06:58:20;15.40;99.90
1417;DHT22;703;51.162;13.574;2022-10-16T07:05:39;15.50;99.90
1417;DHT22;703;51.162;13.574;2022-10-16T07:08:05;15.60;99.90
1417;DHT22;703;51.162;13.574;2022-10-16T07:10:31;15.70;99.90
1417;DHT22;703;51.162;13.574;2022-10-16T07:12:57;15.80;99.90
1417;DHT22;703;51.162;13.574;2022-10-16T07:15:23;15.70;99.90
1417;DHT22;703;51.162;13.574;2022-10-16T07:17:49;15.70;99.90
1417;DHT22;703;51.162;13.574;2022-10-16T07:20:15;15.70;99.90
1417;DHT22;703;51.162;13.574;2022-10-16T07:22:40;15.80;99.90
1417;DHT22;703;51.162;13.574;2022-10-16T07:25:06;15.90;99.90
1417;DHT22;703;51.162;13.574;2022-10-16T07:27:32;16.00;99.90
1417;DHT22;703;51.162;13.574;2022-10-16T07:29:57;16.10;99.90
1417;DHT22;703;51.162;13.574;2022-10-16T07:34:51;16.30;99.90
1417;DHT22;703;51.162;13.574;2022-10-16T07:37:17;16.50;99.90
1417;DHT22;703;51.162;13.574;2022-10-16T07:39:42;16.70;99.90
1417;DHT22;703;51.162;13.574;2022-10-16T07:42:08;16.80;99.90
1417;DHT22;703;51.162;13.574;2022-10-16T07:44:34;16.90;99.90
1417;DHT22;703;51.162;13.574;2022-10-16T07:46:59;17.00;99.90
1417;DHT22;703;51.162;13.574;2022-10-16T07:49:25;17.10;99.90
1417;DHT22;703;51.162;13.574;2022-10-16T07:51:50;17.20;99.90
1417;DHT22;703;51.162;13.574;2022-10-16T07:54:16;17.20;99.90
1417;DHT22;703;51.162;13.574;2022-10-16T07:56:42;17.30;99.90
1417;DHT22;703;51.162;13.574;2022-10-16T07:59:07;17.30;99.90
1417;DHT22;703;51.162;13.574;2022-10-16T08:01:33;17.20;99.90
1417;DHT22;703;51.162;13.574;2022-10-16T08:03:58;21.50;99.90
1417;DHT22;703;51.162;13.574;2022-10-16T08:06:24;17.10;99.90
1417;DHT22;703;51.162;13.574;2022-10-16T08:08:49;17.10;99.90
1417;DHT22;703;51.162;13.574;2022-10-16T08:11:15;17.20;99.90
1417;DHT22;703;51.162;13.574;2022-10-16T08:13:41;17.80;99.90
1417;DHT22;703;51.162;13.574;2022-10-16T08:16:07;17.90;99.90
1417;DHT22;703;51.162;13.574;2022-10-16T08:18:40;20.40;99.90
1417;DHT22;703;51.162;13.574;2022-10-16T08:21:07;17.40;99.90
1417;DHT22;703;51.162;13.574;2022-10-16T08:23:33;17.60;99.90
1417;DHT22;703;51.162;13.574;2022-10-16T08:26:06;17.80;99.90
1417;DHT22;703;51.162;13.574;2022-10-16T08:28:32;18.00;99.90
1417;DHT22;703;51.162;13.574;2022-10-16T08:31:11;18.00;99.90
1417;DHT22;703;51.162;13.574;2022-10-16T08:33:38;18.10;99.90
1417;DHT22;703;51.162;13.574;2022-10-16T08:36:05;18.20;99.90
1417;DHT22;703;51.162;13.574;2022-10-16T08:38:31;18.20;99.90
1417;DHT22;703;51.162;13.574;2022-10-16T08:46:21;18.30;99.90
1417;DHT22;703;51.162;13.574;2022-10-16T08:48:53;18.50;99.90
1417;DHT22;703;51.162;13.574;2022-10-16T08:51:28;19.50;99.90
1417;DHT22;703;51.162;13.574;2022-10-16T08:54:28;18.60;99.90
1417;DHT22;703;51.162;13.574;2022-10-16T08:56:56;18.80;99.90
1417;DHT22;703;51.162;13.574;2022-10-16T08:59:22;18.90;99.90
1417;DHT22;703;51.162;13.574;2022-10-16T09:01:50;19.30;99.90
1417;DHT22;703;51.162;13.574;2022-10-16T09:10:33;20.30;99.90
1417;DHT22;703;51.162;13.574;2022-10-16T09:13:13;20.40;99.90
1417;DHT22;703;51.162;13.574;2022-10-16T09:15:53;20.70;99.90
1417;DHT22;703;51.162;13.574;2022-10-16T09:21:30;20.30;99.90
1417;DHT22;703;51.162;13.574;2022-10-16T09:24:10;20.50;99.90
1417;DHT22;703;51.162;13.574;2022-10-16T09:26:36;20.40;99.90
1417;DHT22;703;51.162;13.574;2022-10-16T09:29:02;20.50;99.90
1417;DHT22;703;51.162;13.574;2022-10-16T09:31:28;20.60;99.90
1417;DHT22;703;51.162;13.574;2022-10-16T09:33:58;20.60;99.90
1417;DHT22;703;51.162;13.574;2022-10-16T09:36:25;20.60;99.90
1417;DHT22;703;51.162;13.574;2022-10-16T09:39:06;20.80;99.90
1417;DHT22;703;51.162;13.574;2022-10-16T09:41:35;21.20;99.90
1417;DHT22;703;51.162;13.574;2022-10-16T09:44:03;21.20;99.90
1417;DHT22;703;51.162;13.574;2022-10-16T09:46:31;21.20;99.90
1417;DHT22;703;51.162;13.574;2022-10-16T09:49:00;21.30;99.90
1417;DHT22;703;51.162;13.574;2022-10-16T09:56:35;21.00;99.90
1417;DHT22;703;51.162;13.574;2022-10-16T09:59:12;20.90;99.90
1417;DHT22;703;51.162;13.574;2022-10-16T10:01:45;20.70;99.90
1417;DHT22;703;51.162;13.574;2022-10-16T10:04:11;20.70;99.90
1417;DHT22;703;51.162;13.574;2022-10-16T10:06:47;21.10;99.90
1417;DHT22;703;51.162;13.574;2022-10-16T10:09:50;21.40;99.90
1417;DHT22;703;51.162;13.574;2022-10-16T10:12:35;21.40;99.90
1417;DHT22;703;51.162;13.574;2022-10-16T10:15:10;21.50;99.90
1417;DHT22;703;51.162;13.574;2022-10-16T10:17:49;21.90;99.90
1417;DHT22;703;51.162;13.574;2022-10-16T10:20:23;22.40;99.90
1417;DHT22;703;51.162;13.574;2022-10-16T10:22:49;22.40;99.90
1417;DHT22;703;51.162;13.574;2022-10-16T10:25:21;22.10;99.90
1417;DHT22;703;51.162;13.574;2022-10-16T10:28:19;22.30;99.90
1417;DHT22;703;51.162;13.574;2022-10-16T10:35:45;21.90;99.90
1417;DHT22;703;51.162;13.574;2022-10-16T10:44:01;21.60;99.90
1417;DHT22;703;51.162;13.574;2022-10-16T10:46:50;21.60;99.90
1417;DHT22;703;51.162;13.574;2022-10-16T10:51:14;21.70;99.90
1417;DHT22;703;51.162;13.574;2022-10-16T10:56:24;21.80;99.90
1417;DHT22;703;51.162;13.574;2022-10-16T10:59:22;22.10;99.90
1417;DHT22;703;51.162;13.574;2022-10-16T11:07:20;23.00;99.90
1417;DHT22;703;51.162;13.574;2022-10-16T11:09:53;22.80;99.90
1417;DHT22;703;51.162;13.574;2022-10-16T11:12:30;22.60;99.90
1417;DHT22;703;51.162;13.574;2022-10-16T11:15:32;22.60;99.90
1417;DHT22;703;51.162;13.574;2022-10-16T11:18:20;22.30;99.90
1417;DHT22;703;51.162;13.574;2022-10-16T11:21:14;22.10;99.90
1417;DHT22;703;51.162;13.574;2022-10-16T11:23:58;22.00;99.90
1417;DHT22;703;51.162;13.574;2022-10-16T11:26:41;22.10;99.90
1417;DHT22;703;51.162;13.574;2022-10-16T11:29:16;22.10;99.90
1417;DHT22;703;51.162;13.574;2022-10-16T11:31:46;22.10;99.90
1417;DHT22;703;51.162;13.574;2022-10-16T11:34:41;22.00;99.90
1417;DHT22;703;51.162;13.574;2022-10-16T11:37:12;22.10;99.90
1417;DHT22;703;51.162;13.574;2022-10-16T11:39:39;23.40;99.90
1417;DHT22;703;51.162;13.574;2022-10-16T11:42:25;23.10;99.90
1417;DHT22;703;51.162;13.574;2022-10-16T11:45:11;23.10;99.90
1417;DHT22;703;51.162;13.574;2022-10-16T11:47:48;23.60;99.90
1417;DHT22;703;51.162;13.574;2022-10-16T11:55:19;22.40;99.90
1417;DHT22;703;51.162;13.574;2022-10-16T11:57:57;22.30;99.90
1417;DHT22;703;51.162;13.574;2022-10-16T12:00:38;22.60;99.90
1417;DHT22;703;51.162;13.574;2022-10-16T12:05:58;22.40;99.90
1417;DHT22;703;51.162;13.574;2022-10-16T12:08:27;22.30;99.90
1417;DHT22;703;51.162;13.574;2022-10-16T12:10:53;26.30;99.90
1417;DHT22;703;51.162;13.574;2022-10-16T12:13:38;22.30;99.90
1417;DHT22;703;51.162;13.574;2022-10-16T12:16:05;22.30;99.90
1417;DHT22;703;51.162;13.574;2022-10-16T12:18:31;23.20;99.90
1417;DHT22;703;51.162;13.574;2022-10-16T12:20:58;23.30;99.90
1417;DHT22;703;51.162;13.574;2022-10-16T12:26:28;22.10;99.90
1417;DHT22;703;51.162;13.574;2022-10-16T12:28:55;22.00;99.90
1417;DHT22;703;51.162;13.574;2022-10-16T12:31:21;22.10;99.90
1417;DHT22;703;51.162;13.574;2022-10-16T12:34:01;22.20;99.90
1417;DHT22;703;51.162;13.574;2022-10-16T12:36:33;22.50;99.90
1417;DHT22;703;51.162;13.574;2022-10-16T12:39:00;22.30;99.90
1417;DHT22;703;51.162;13.574;2022-10-16T12:41:34;23.70;99.90
1417;DHT22;703;51.162;13.574;2022-10-16T12:44:00;22.50;99.90
1417;DHT22;703;51.162;13.574;2022-10-16T12:46:39;22.50;99.90
1417;DHT22;703;51.162;13.574;2022-10-16T12:49:22;22.20;99.90
1417;DHT22;703;51.162;13.574;2022-10-16T12:51:48;22.50;99.90
1417;DHT22;703;51.162;13.574;2022-10-16T12:54:17;22.50;99.90
1417;DHT22;703;51.162;13.574;2022-10-16T13:04:29;22.00;99.90
1417;DHT22;703;51.162;13.574;2022-10-16T13:07:44;22.00;99.90
1417;DHT22;703;51.162;13.574;2022-10-16T13:18:15;22.10;99.90
1417;DHT22;703;51.162;13.574;2022-10-16T13:20:53;22.00;99.90
1417;DHT22;703;51.162;13.574;2022-10-16T13:27:05;22.10;99.90
1417;DHT22;703;51.162;13.574;2022-10-16T13:29:32;22.20;99.90
1417;DHT22;703;51.162;13.574;2022-10-16T13:32:01;22.70;99.90
1417;DHT22;703;51.162;13.574;2022-10-16T13:34:31;22.80;99.90
1417;DHT22;703;51.162;13.574;2022-10-16T13:36:57;23.90;99.90
1417;DHT22;703;51.162;13.574;2022-10-16T13:39:27;21.90;99.90
1417;DHT22;703;51.162;13.574;2022-10-16T13:42:06;21.90;99.90
1417;DHT22;703;51.162;13.574;2022-10-16T13:44:40;21.80;99.90
1417;DHT22;703;51.162;13.574;2022-10-16T13:47:16;22.90;99.90
1417;DHT22;703;51.162;13.574;2022-10-16T13:49:42;22.00;99.90
1417;DHT22;703;51.162;13.574;2022-10-16T13:52:17;21.70;99.90
1417;DHT22;703;51.162;13.574;2022-10-16T13:54:43;23.00;99.90
1417;DHT22;703;51.162;13.574;2022-10-16T13:57:15;23.80;99.90
1417;DHT22;703;51.162;13.574;2022-10-16T13:59:42;21.70;99.90
1417;DHT22;703;51.162;13.574;2022-10-16T14:02:36;21.80;99.90
1417;DHT22;703;51.162;13.574;2022-10-16T14:05:04;21.80;99.90
1417;DHT22;703;51.162;13.574;2022-10-16T14:07:34;22.00;99.90
1417;DHT22;703;51.162;13.574;2022-10-16T14:10:20;22.50;99.90
1417;DHT22;703;51.162;13.574;2022-10-16T14:12:57;22.50;99.90
1417;DHT22;703;51.162;13.574;2022-10-16T14:15:24;21.90;99.90
1417;DHT22;703;51.162;13.574;2022-10-16T14:17:51;23.00;99.90
1417;DHT22;703;51.162;13.574;2022-10-16T14:20:18;21.80;99.90
1417;DHT22;703;51.162;13.574;2022-10-16T14:22:45;25.20;99.90
1417;DHT22;703;51.162;13.574;2022-10-16T14:28:04;22.90;99.90
1417;DHT22;703;51.162;13.574;2022-10-16T14:30:32;23.60;99.90
1417;DHT22;703;51.162;13.574;2022-10-16T14:33:01;23.80;99.90
1417;DHT22;703;51.162;13.574;2022-10-16T14:35:36;22.90;99.90
1417;DHT22;703;51.162;13.574;2022-10-16T14:38:18;22.60;99.90
1417;DHT22;703;51.162;13.574;2022-10-16T14:41:04;23.30;99.90
1417;DHT22;703;51.162;13.574;2022-10-16T14:43:39;23.20;99.90
1417;DHT22;703;51.162;13.574;2022-10-16T14:46:20;23.00;99.90
1417;DHT22;703;51.162;13.574;2022-10-16T14:48:48;23.40;99.90
1417;DHT22;703;51.162;13.574;2022-10-16T14:51:16;22.70;99.90
1417;DHT22;703;51.162;13.574;2022-10-16T14:53:42;22.30;99.90
1417;DHT22;703;51.162;13.574;2022-10-16T14:56:08;23.00;99.90
1417;DHT22;703;51.162;13.574;2022-10-16T14:58:39;22.20;99.90
1417;DHT22;703;51.162;13.574;2022-10-16T15:01:05;22.70;99.90
1417;DHT22;703;51.162;13.574;2022-10-16T15:03:33;24.00;99.90
1417;DHT22;703;51.162;13.574;2022-10-16T15:05:59;21.10;99.90
1417;DHT22;703;51.162;13.574;2022-10-16T15:15:45;21.90;99.90
1417;DHT22;703;51.162;13.574;2022-10-16T15:20:38;21.70;99.90
1417;DHT22;703;51.162;13.574;2022-10-16T15:23:24;22.30;99.90
1417;DHT22;703;51.162;13.574;2022-10-16T15:25:54;21.40;99.90
1417;DHT22;703;51.162;13.574;2022-10-16T15:28:21;21.40;99.90
1417;DHT22;703;51.162;13.574;2022-10-16T15:30:50;22.60;99.90
1417;DHT22;703;51.162;13.574;2022-10-16T15:33:18;21.30;99.90
1417;DHT22;703;51.162;13.574;2022-10-16T15:35:48;21.30;99.90
1417;DHT22;703;51.162;13.574;2022-10-16T15:38:15;21.30;99.90
1417;DHT22;703;51.162;13.574;2022-10-16T15:40:41;20.80;99.90
1417;DHT22;703;51.162;13.574;2022-10-16T15:43:07;22.60;99.90
1417;DHT22;703;51.162;13.574;2022-10-16T15:45:33;24.60;99.90
1417;DHT22;703;51.162;13.574;2022-10-16T15:47:58;20.90;99.90
1417;DHT22;703;51.162;13.574;2022-10-16T15:50:24;21.40;99.90
1417;DHT22;703;51.162;13.574;2022-10-16T15:52:50;24.10;99.90
1417;DHT22;703;51.162;13.574;2022-10-16T15:57:44;20.10;99.90
1417;DHT22;703;51.162;13.574;2022-10-16T16:00:15;20.10;99.90
1417;DHT22;703;51.162;13.574;2022-10-16T16:02:42;19.80;99.90
1417;DHT22;703;51.162;13.574;2022-10-16T16:05:09;23.60;99.90
1417;DHT22;703;51.162;13.574;2022-10-16T16:07:37;21.00;99.90
1417;DHT22;703;51.162;13.574;2022-10-16T16:10:04;20.50;99.90
1417;DHT22;703;51.162;13.574;2022-10-16T16:12:30;19.30;99.90
1417;DHT22;703;51.162;13.574;2022-10-16T16:14:55;19.10;99.90
1417;DHT22;703;51.162;13.574;2022-10-16T16:17:21;20.80;99.90
1417;DHT22;703;51.162;13.574;2022-10-16T16:19:47;20.70;99.90
1417;DHT22;703;51.162;13.574;2022-10-16T16:22:13;18.80;99.90
1417;DHT22;703;51.162;13.574;2022-10-16T16:24:38;21.40;99.90
1417;DHT22;703;51.162;13.574;2022-10-16T16:27:04;22.40;99.90
1417;DHT22;703;51.162;13.574;2022-10-16T16:41:43;17.70;99.90
1417;DHT22;703;51.162;13.574;2022-10-16T16:44:11;17.70;99.90
1417;DHT22;703;51.162;13.574;2022-10-16T16:49:05;17.50;99.90
1417;DHT22;703;51.162;13.574;2022-10-16T16:56:23;17.20;99.90
1417;DHT22;703;51.162;13.574;2022-10-16T16:58:51;17.10;99.90
1417;DHT22;703;51.162;13.574;2022-10-16T17:01:17;17.00;99.90
1417;DHT22;703;51.162;13.574;2022-10-16T17:03:44;16.90;99.90
1417;DHT22;703;51.162;13.574;2022-10-16T17:06:11;16.80;99.90
1417;DHT22;703;51.162;13.574;2022-10-16T17:08:38;16.70;99.90
1417;DHT22;703;51.162;13.574;2022-10-16T17:11:04;16.60;99.90
1417;DHT22;703;51.162;13.574;2022-10-16T17:13:33;16.40;99.90
1417;DHT22;703;51.162;13.574;2022-10-16T17:16:04;16.40;99.90
1417;DHT22;703;51.162;13.574;2022-10-16T17:18:31;16.40;99.90
1417;DHT22;703;51.162;13.574;2022-10-16T17:21:01;16.40;99.90
1417;DHT22;703;51.162;13.574;2022-10-16T17:23:28;16.40;99.90
1417;DHT22;703;51.162;13.574;2022-10-16T17:25:54;16.40;99.90
1417;DHT22;703;51.162;13.574;2022-10-16T17:33:12;16.20;99.90
1417;DHT22;703;51.162;13.574;2022-10-16T17:35:45;16.20;99.90
1417;DHT22;703;51.162;13.574;2022-10-16T17:38:12;16.20;99.90
1417;DHT22;703;51.162;13.574;2022-10-16T17:43:05;16.00;99.90
1417;DHT22;703;51.162;13.574;2022-10-16T17:45:35;16.00;99.90
1417;DHT22;703;51.162;13.574;2022-10-16T17:48:00;16.00;99.90
1417;DHT22;703;51.162;13.574;2022-10-16T17:50:26;15.90;99.90
1417;DHT22;703;51.162;13.574;2022-10-16T17:52:51;15.80;99.90
1417;DHT22;703;51.162;13.574;2022-10-16T18:00:09;15.50;99.90
1417;DHT22;703;51.162;13.574;2022-10-16T18:05:01;15.60;99.90
1417;DHT22;703;51.162;13.574;2022-10-16T18:12:22;15.50;99.90
1417;DHT22;703;51.162;13.574;2022-10-16T18:17:14;15.50;99.90
1417;DHT22;703;51.162;13.574;2022-10-16T18:19:41;15.40;99.90
1417;DHT22;703;51.162;13.574;2022-10-16T18:29:25;15.10;99.90
1417;DHT22;703;51.162;13.574;2022-10-16T18:31:52;15.00;99.90
1417;DHT22;703;51.162;13.574;2022-10-16T18:39:10;14.80;99.90
1417;DHT22;703;51.162;13.574;2022-10-16T18:41:37;14.80;99.90
1417;DHT22;703;51.162;13.574;2022-10-16T18:44:04;14.80;99.90
1417;DHT22;703;51.162;13.574;2022-10-16T18:48:57;14.70;99.90
1417;DHT22;703;51.162;13.574;2022-10-16T18:51:35;14.60;99.90
1417;DHT22;703;51.162;13.574;2022-10-16T18:54:05;14.50;99.90
1417;DHT22;703;51.162;13.574;2022-10-16T18:59:01;14.70;99.90
1417;DHT22;703;51.162;13.574;2022-10-16T19:01:29;14.60;99.90
1417;DHT22;703;51.162;13.574;2022-10-16T19:04:00;14.60;99.90
1417;DHT22;703;51.162;13.574;2022-10-16T19:06:27;14.60;99.90
1417;DHT22;703;51.162;13.574;2022-10-16T19:08:54;14.70;99.90
1417;DHT22;703;51.162;13.574;2022-10-16T19:11:22;14.80;99.90
1417;DHT22;703;51.162;13.574;2022-10-16T19:13:48;14.80;99.90
1417;DHT22;703;51.162;13.574;2022-10-16T19:16:26;14.90;99.90
1417;DHT22;703;51.162;13.574;2022-10-16T19:18:55;15.00;99.90
1417;DHT22;703;51.162;13.574;2022-10-16T19:21:22;15.00;99.90
1417;DHT22;703;51.162;13.574;2022-10-16T19:23:57;15.00;99.90
1417;DHT22;703;51.162;13.574;2022-10-16T19:28:49;14.90;99.90
1417;DHT22;703;51.162;13.574;2022-10-16T19:36:13;14.80;99.90
1417;DHT22;703;51.162;13.574;2022-10-16T19:41:10;14.80;99.90
1417;DHT22;703;51.162;13.574;2022-10-16T19:46:03;15.00;99.90
1417;DHT22;703;51.162;13.574;2022-10-16T19:55:47;15.10;99.90
1417;DHT22;703;51.162;13.574;2022-10-16T20:00:41;15.00;99.90
1417;DHT22;703;51.162;13.574;2022-10-16T20:29:55;15.00;99.90
1417;DHT22;703;51.162;13.574;2022-10-16T20:32:21;14.90;99.90
1417;DHT22;703;51.162;13.574;2022-10-16T20:44:33;14.60;99.90
1417;DHT22;703;51.162;13.574;2022-10-16T20:59:10;14.40;99.90
1417;DHT22;703;51.162;13.574;2022-10-16T21:04:04;14.20;99.90
1417;DHT22;703;51.162;13.574;2022-10-16T21:06:31;14.20;99.90
1417;DHT22;703;51.162;13.574;2022-10-16T21:11:30;14.00;99.90
1417;DHT22;703;51.162;13.574;2022-10-16T21:13:57;14.00;99.90
1417;DHT22;703;51.162;13.574;2022-10-16T21:18:50;13.90;99.90
1417;DHT22;703;51.162;13.574;2022-10-16T21:21:29;13.90;99.90
1417;DHT22;703;51.162;13.574;2022-10-16T21:23:56;13.90;99.90
1417;DHT22;703;51.162;13.574;2022-10-16T21:26:22;13.80;99.90
1417;DHT22;703;51.162;13.574;2022-10-16T21:28:51;13.80;99.90
1417;DHT22;703;51.162;13.574;2022-10-16T21:31:19;13.70;99.90
1417;DHT22;703;51.162;13.574;2022-10-16T21:33:45;13.60;99.90
1417;DHT22;703;51.162;13.574;2022-10-16T21:36:22;13.60;99.90